createdAt,value
2023-05-19T00:02:39.883Z,12.31
2023-05-19T00:05:46.156Z,12.30
2023-05-19T00:08:50.262Z,12.31
2023-05-19T00:11:52.843Z,12.21
2023-05-19T00:14:55.298Z,12.35
2023-05-19T00:17:58.154Z,12.20
2023-05-19T00:21:01.164Z,12.24
2023-05-19T00:24:03.894Z,12.21
2023-05-19T00:27:06.329Z,12.16
2023-05-19T00:30:09.110Z,12.16
2023-05-19T00:33:11.433Z,12.27
2023-05-19T00:36:13.752Z,12.18
2023-05-19T00:39:16.120Z,12.20
2023-05-19T00:42:18.483Z,12.20
2023-05-19T00:45:20.831Z,12.14
2023-05-19T00:48:25.024Z,12.09
2023-05-19T00:51:29.679Z,12.07
2023-05-19T00:54:34.413Z,12.05
2023-05-19T00:57:37.868Z,12.01
2023-05-19T01:00:40.821Z,11.95
2023-05-19T01:03:44.287Z,11.89
2023-05-19T01:06:55.004Z,11.99
2023-05-19T01:09:57.909Z,11.96
2023-05-19T01:13:01.846Z,11.91
2023-05-19T01:16:25.083Z,11.93
2023-05-19T01:19:42.541Z,11.92
2023-05-19T01:23:21.587Z,11.91
2023-05-19T01:26:23.967Z,12.02
2023-05-19T01:29:30.770Z,12.05
2023-05-19T01:32:34.716Z,12.06
2023-05-19T01:35:39.620Z,12.09
2023-05-19T01:38:43.972Z,11.93
2023-05-19T01:41:47.519Z,11.83
2023-05-19T01:44:49.980Z,11.80
2023-05-19T01:47:55.591Z,11.81
2023-05-19T01:50:58.491Z,11.87
2023-05-19T01:54:01.340Z,11.85
2023-05-19T01:57:12.874Z,11.83
2023-05-19T02:00:34.209Z,11.83
2023-05-19T02:04:03.578Z,11.83
2023-05-19T02:07:18.697Z,11.86
2023-05-19T02:10:30.939Z,11.79
2023-05-19T02:13:37.908Z,11.78
2023-05-19T02:16:45.812Z,11.75
2023-05-19T02:19:49.402Z,11.68
2023-05-19T02:22:51.857Z,11.71
2023-05-19T02:25:54.188Z,11.75
2023-05-19T02:28:56.631Z,11.72
2023-05-19T02:32:02.241Z,11.66
2023-05-19T02:35:05.038Z,11.60
2023-05-19T02:38:08.910Z,11.68
2023-05-19T02:41:11.214Z,11.72
2023-05-19T02:44:13.614Z,11.79
2023-05-19T02:47:16.309Z,11.83
2023-05-19T02:50:19.643Z,11.85
2023-05-19T02:53:21.925Z,11.93
2023-05-19T02:56:24.308Z,11.95
2023-05-19T02:59:27.050Z,11.84
2023-05-19T03:02:30.847Z,11.95
2023-05-19T03:05:33.309Z,11.90
2023-05-19T03:08:36.459Z,11.91
2023-05-19T03:11:38.757Z,11.92
2023-05-19T03:14:41.303Z,11.91
2023-05-19T03:17:43.743Z,11.93
2023-05-19T03:20:46.431Z,11.95
2023-05-19T03:23:48.850Z,11.89
2023-05-19T03:26:51.775Z,11.93
2023-05-19T03:29:54.551Z,12.01
2023-05-19T03:32:57.906Z,12.06
2023-05-19T03:36:00.405Z,12.11
2023-05-19T03:39:07.822Z,12.18
2023-05-19T03:42:10.427Z,12.10
2023-05-19T03:45:12.975Z,12.10
2023-05-19T03:48:16.063Z,12.12
2023-05-19T03:51:44.940Z,12.22
2023-05-19T03:55:14.858Z,12.29
2023-05-19T03:58:17.268Z,12.51
2023-05-19T04:01:19.628Z,12.51
2023-05-19T04:04:22.021Z,12.57
2023-05-19T04:07:24.599Z,12.57
2023-05-19T04:10:27.245Z,12.63
2023-05-19T04:13:33.154Z,12.69
2023-05-19T04:16:36.069Z,12.90
2023-05-19T04:19:39.030Z,12.96
2023-05-19T04:22:41.920Z,13.04
2023-05-19T04:25:48.899Z,13.34
2023-05-19T04:28:51.561Z,13.32
2023-05-19T04:31:53.952Z,13.37
2023-05-19T04:34:58.942Z,13.47
2023-05-19T04:38:03.824Z,13.60
2023-05-19T04:41:12.236Z,13.79
2023-05-19T04:44:18.467Z,14.13
2023-05-19T04:47:28.353Z,14.23
2023-05-19T04:50:32.520Z,14.29
2023-05-19T04:53:36.730Z,14.51
2023-05-19T04:56:42.123Z,14.80
2023-05-19T04:59:44.672Z,15.02
2023-05-19T05:02:47.256Z,15.08
2023-05-19T05:05:53.462Z,15.24
2023-05-19T05:08:56.965Z,15.31
2023-05-19T05:12:02.932Z,15.37
2023-05-19T05:15:07.189Z,15.63
2023-05-19T05:18:10.217Z,16.05
2023-05-19T05:21:13.484Z,16.21
2023-05-19T05:24:16.673Z,15.89
2023-05-19T05:27:26.447Z,16.02
2023-05-19T05:30:28.954Z,15.95
2023-05-19T05:33:32.612Z,16.59
2023-05-19T05:36:35.257Z,17.02
2023-05-19T05:39:37.878Z,16.65
2023-05-19T05:42:40.569Z,16.19
2023-05-19T05:45:43.029Z,16.31
2023-05-19T05:48:46.312Z,16.28
2023-05-19T05:52:05.080Z,16.93
2023-05-19T05:55:14.445Z,16.96
2023-05-19T05:58:17.503Z,17.87
2023-05-19T06:01:22.219Z,17.41
2023-05-19T06:04:28.978Z,17.39
2023-05-19T06:07:32.653Z,17.74
2023-05-19T06:10:36.857Z,18.20
2023-05-19T06:13:43.751Z,17.36
2023-05-19T06:16:53.280Z,16.83
2023-05-19T06:19:56.269Z,17.19
2023-05-19T06:22:58.622Z,18.07
2023-05-19T06:26:02.723Z,19.27
2023-05-19T06:29:06.588Z,19.00
2023-05-19T06:32:10.586Z,19.36
2023-05-19T06:35:16.868Z,19.03
2023-05-19T06:38:19.543Z,18.99
2023-05-19T06:41:21.956Z,19.12
2023-05-19T06:44:26.898Z,18.44
2023-05-19T06:47:30.132Z,18.20
2023-05-19T06:50:32.769Z,18.37
2023-05-19T06:53:36.774Z,18.68
2023-05-19T06:56:45.105Z,19.41
2023-05-19T06:59:49.769Z,19.36
2023-05-19T07:02:53.712Z,19.08
2023-05-19T07:05:57.527Z,18.47
2023-05-19T07:09:00.172Z,18.66
2023-05-19T07:12:12.965Z,18.88
2023-05-19T07:15:17.208Z,19.07
2023-05-19T07:18:20.230Z,19.62
2023-05-19T07:21:22.938Z,19.55
2023-05-19T07:24:28.233Z,19.22
2023-05-19T07:27:30.725Z,19.12
2023-05-19T07:30:34.877Z,20.79
2023-05-19T07:33:38.163Z,20.94
2023-05-19T07:36:40.592Z,22.01
2023-05-19T07:39:43.032Z,23.05
2023-05-19T07:42:45.387Z,23.39
2023-05-19T07:45:48.490Z,22.94
2023-05-19T07:48:52.400Z,23.71
2023-05-19T07:51:55.261Z,22.23
2023-05-19T07:54:59.601Z,22.81
2023-05-19T07:58:04.806Z,24.33
2023-05-19T08:01:07.074Z,25.31
2023-05-19T08:04:12.678Z,25.54
2023-05-19T08:07:15.533Z,22.67
2023-05-19T08:10:18.124Z,23.37
2023-05-19T08:13:20.505Z,24.71
2023-05-19T08:16:24.894Z,25.78
2023-05-19T08:19:28.900Z,24.90
2023-05-19T08:22:31.256Z,22.86
2023-05-19T08:25:35.835Z,22.94
2023-05-19T08:28:39.322Z,23.12
2023-05-19T08:31:41.902Z,22.81
2023-05-19T08:34:45.614Z,22.65
2023-05-19T08:37:48.517Z,20.90
2023-05-19T08:40:59.432Z,20.35
2023-05-19T08:44:07.542Z,20.86
2023-05-19T08:47:13.997Z,21.01
2023-05-19T08:50:21.465Z,20.37
2023-05-19T08:53:33.850Z,20.71
2023-05-19T08:56:37.901Z,20.84
2023-05-19T08:59:43.568Z,20.85
2023-05-19T09:02:59.657Z,20.90
2023-05-19T09:06:06.392Z,21.07
2023-05-19T09:09:09.758Z,24.18
2023-05-19T09:12:13.852Z,24.73
2023-05-19T09:15:20.609Z,22.55
2023-05-19T09:18:24.892Z,22.87
2023-05-19T09:21:31.581Z,21.98
2023-05-19T09:24:34.828Z,20.43
2023-05-19T09:27:37.371Z,20.51
2023-05-19T09:30:39.831Z,22.10
2023-05-19T09:33:45.856Z,22.62
2023-05-19T09:36:53.639Z,22.94
2023-05-19T09:39:56.851Z,22.99
2023-05-19T09:42:59.165Z,22.80
2023-05-19T09:46:10.586Z,24.05
2023-05-19T09:49:16.536Z,24.43
2023-05-19T09:52:19.362Z,25.78
2023-05-19T09:55:28.863Z,24.90
2023-05-19T09:58:35.452Z,22.89
2023-05-19T10:01:41.330Z,22.50
2023-05-19T10:04:46.403Z,23.46
2023-05-19T10:07:54.927Z,23.20
2023-05-19T10:10:57.981Z,23.01
2023-05-19T10:14:00.818Z,23.11
2023-05-19T10:17:03.946Z,24.15
2023-05-19T10:20:18.676Z,24.96
2023-05-19T10:23:24.659Z,24.65
2023-05-19T10:26:31.635Z,23.87
2023-05-19T10:29:38.353Z,23.92
2023-05-19T10:32:44.814Z,23.65
2023-05-19T10:36:24.829Z,23.20
2023-05-19T10:39:35.734Z,22.82
2023-05-19T10:43:02.784Z,22.48
2023-05-19T10:46:06.548Z,22.90
2023-05-19T10:49:08.995Z,22.47
2023-05-19T10:52:31.088Z,21.96
2023-05-19T10:55:50.569Z,22.22
2023-05-19T10:58:53.151Z,22.19
2023-05-19T11:01:55.693Z,22.65
2023-05-19T11:05:09.858Z,22.07
2023-05-19T11:08:13.112Z,21.32
2023-05-19T11:11:17.083Z,21.73
2023-05-19T11:14:26.717Z,21.53
2023-05-19T11:17:29.710Z,21.99
2023-05-19T11:20:37.399Z,21.78
2023-05-19T11:23:43.442Z,22.03
2023-05-19T11:26:46.440Z,21.90
2023-05-19T11:29:49.581Z,21.70
2023-05-19T11:32:54.253Z,21.96
2023-05-19T11:35:58.608Z,22.22
2023-05-19T11:39:02.646Z,22.03
2023-05-19T11:42:05.074Z,22.07
2023-05-19T11:45:08.365Z,22.48
2023-05-19T11:48:16.046Z,22.55
2023-05-19T11:51:22.917Z,22.53
2023-05-19T11:54:31.648Z,22.54
2023-05-19T11:57:36.406Z,22.14
2023-05-19T12:00:40.844Z,22.28
2023-05-19T12:03:43.689Z,21.85
2023-05-19T12:06:49.466Z,22.14
2023-05-19T12:09:52.525Z,22.78
2023-05-19T12:12:55.612Z,22.98
2023-05-19T12:16:01.327Z,22.74
2023-05-19T12:19:06.814Z,22.24
2023-05-19T12:22:10.156Z,22.03
2023-05-19T12:25:12.768Z,22.20
2023-05-19T12:28:16.696Z,22.36
2023-05-19T12:31:20.871Z,22.45
2023-05-19T12:34:23.829Z,22.48
2023-05-19T12:37:33.332Z,22.88
2023-05-19T12:40:37.939Z,23.30
2023-05-19T12:43:41.302Z,23.17
2023-05-19T12:46:44.465Z,23.39
2023-05-19T12:49:57.314Z,23.04
2023-05-19T12:53:00.086Z,22.96
2023-05-19T12:56:12.013Z,23.06
2023-05-19T12:59:34.832Z,22.48
2023-05-19T13:03:05.615Z,22.64
2023-05-19T13:06:09.715Z,22.51
2023-05-19T13:09:21.818Z,22.54
2023-05-19T13:12:28.512Z,22.73
2023-05-19T13:15:37.861Z,22.59
2023-05-19T13:18:44.412Z,22.11
2023-05-19T13:21:51.247Z,22.26
2023-05-19T13:24:53.650Z,22.61
2023-05-19T13:27:56.839Z,22.97
2023-05-19T13:30:59.725Z,23.02
2023-05-19T13:34:02.865Z,22.91
2023-05-19T13:37:06.648Z,23.00
2023-05-19T13:40:11.566Z,23.00
2023-05-19T13:43:14.031Z,22.95
2023-05-19T13:46:16.507Z,22.85
2023-05-19T13:49:18.843Z,22.78
2023-05-19T13:52:21.900Z,23.12
2023-05-19T13:55:27.423Z,23.43
2023-05-19T13:58:30.911Z,23.45
2023-05-19T14:01:35.496Z,23.54
2023-05-19T14:04:39.147Z,23.24
2023-05-19T14:07:43.118Z,23.62
2023-05-19T14:10:48.555Z,23.44
2023-05-19T14:13:52.762Z,23.40
2023-05-19T14:16:56.202Z,22.99
2023-05-19T14:20:00.210Z,22.98
2023-05-19T14:23:03.114Z,22.94
2023-05-19T14:26:05.686Z,23.10
2023-05-19T14:32:10.948Z,23.18
2023-05-19T14:35:13.485Z,23.38
2023-05-19T14:38:17.053Z,23.43
2023-05-19T14:41:19.374Z,23.49
2023-05-19T14:44:21.646Z,23.63
2023-05-19T14:47:26.266Z,23.72
2023-05-19T14:50:29.710Z,23.45
2023-05-19T14:53:32.160Z,23.47
2023-05-19T14:56:37.646Z,23.44
2023-05-19T14:59:40.071Z,23.26
2023-05-19T15:02:42.582Z,23.39
2023-05-19T15:05:46.002Z,23.44
2023-05-19T15:08:48.441Z,23.37
2023-05-19T15:11:50.867Z,23.41
2023-05-19T15:14:53.261Z,23.39
2023-05-19T15:17:55.896Z,23.30
2023-05-19T15:20:58.278Z,23.33
2023-05-19T15:24:01.627Z,23.18
2023-05-19T15:27:04.434Z,23.14
2023-05-19T15:30:07.281Z,23.21
2023-05-19T15:33:12.320Z,23.29
2023-05-19T15:36:16.738Z,23.24
2023-05-19T15:39:19.477Z,23.26
2023-05-19T15:42:21.767Z,23.15
2023-05-19T15:45:24.120Z,23.02
2023-05-19T15:48:28.851Z,23.00
2023-05-19T15:51:31.656Z,22.82
2023-05-19T15:54:34.848Z,22.87
2023-05-19T15:57:37.523Z,22.88
2023-05-19T16:00:39.846Z,22.87
2023-05-19T16:06:46.947Z,22.76
2023-05-19T16:09:50.055Z,22.67
2023-05-19T16:12:55.288Z,22.66
2023-05-19T16:15:57.723Z,22.59
2023-05-19T16:19:00.178Z,22.67
2023-05-19T16:22:02.526Z,22.76
2023-05-19T16:25:05.616Z,22.85
2023-05-19T16:28:07.993Z,22.81
2023-05-19T16:31:10.364Z,22.91
2023-05-19T16:34:12.656Z,22.81
2023-05-19T16:37:16.216Z,22.82
2023-05-19T16:40:18.655Z,22.71
2023-05-19T16:43:20.982Z,22.59
2023-05-19T16:46:23.705Z,22.48
2023-05-19T16:49:26.223Z,22.43
2023-05-19T16:52:29.306Z,22.31
2023-05-19T16:55:31.785Z,22.23
2023-05-19T16:58:34.665Z,22.13
2023-05-19T17:01:37.179Z,21.93
2023-05-19T17:04:39.504Z,21.92
2023-05-19T17:07:41.836Z,21.77
2023-05-19T17:10:44.911Z,21.79
2023-05-19T17:13:47.505Z,21.67
2023-05-19T17:16:49.906Z,21.63
2023-05-19T17:19:52.389Z,21.57
2023-05-19T17:22:54.800Z,21.48
2023-05-19T17:25:57.144Z,21.34
2023-05-19T17:28:59.423Z,21.30
2023-05-19T17:32:01.747Z,21.24
2023-05-19T17:35:06.720Z,21.13
2023-05-19T17:38:10.800Z,21.02
2023-05-19T17:41:14.285Z,20.91
2023-05-19T17:44:16.783Z,20.75
2023-05-19T17:47:19.066Z,20.61
2023-05-19T17:50:21.549Z,20.59
2023-05-19T17:53:24.423Z,20.48
2023-05-19T17:56:32.424Z,20.44
2023-05-19T17:59:34.967Z,20.41
2023-05-19T18:02:38.134Z,20.17
2023-05-19T18:05:43.351Z,20.03
2023-05-19T18:08:51.567Z,19.80
2023-05-19T18:11:55.081Z,19.41
2023-05-19T18:14:57.514Z,19.11
2023-05-19T18:18:00.280Z,19.04
2023-05-19T18:21:02.823Z,18.92
2023-05-19T18:24:06.087Z,18.86
2023-05-19T18:27:08.389Z,18.82
2023-05-19T18:30:11.090Z,18.73
2023-05-19T18:33:13.517Z,18.51
2023-05-19T18:36:16.731Z,18.35
2023-05-19T18:39:19.334Z,18.46
2023-05-19T18:42:21.870Z,18.26
2023-05-19T18:45:24.189Z,18.10
2023-05-19T18:48:27.032Z,18.07
2023-05-19T18:51:30.083Z,17.95
2023-05-19T18:54:32.657Z,17.70
2023-05-19T18:57:34.943Z,17.58
2023-05-19T19:00:37.442Z,17.63
2023-05-19T19:03:39.788Z,17.27
2023-05-19T19:06:43.831Z,17.12
2023-05-19T19:09:46.322Z,16.85
2023-05-19T19:12:48.780Z,16.81
2023-05-19T19:15:51.130Z,16.83
2023-05-19T19:18:53.572Z,16.86
2023-05-19T19:21:55.988Z,16.73
2023-05-19T19:24:58.292Z,16.56
2023-05-19T19:28:01.465Z,16.50
2023-05-19T19:31:03.856Z,16.47
2023-05-19T19:34:09.186Z,16.47
2023-05-19T19:37:11.552Z,16.33
2023-05-19T19:40:14.206Z,16.33
2023-05-19T19:43:16.563Z,16.41
2023-05-19T19:46:20.258Z,16.39
2023-05-19T19:49:22.555Z,16.34
2023-05-19T19:52:25.512Z,16.44
2023-05-19T19:55:28.929Z,16.41
2023-05-19T19:58:31.317Z,16.39
2023-05-19T20:01:33.961Z,16.52
2023-05-19T20:04:36.581Z,16.70
2023-05-19T20:07:39.606Z,16.70
2023-05-19T20:10:44.010Z,16.72
2023-05-19T20:13:47.171Z,16.76
2023-05-19T20:16:49.533Z,16.75
2023-05-19T20:19:51.905Z,16.72
2023-05-19T20:22:54.213Z,16.71
2023-05-19T20:26:11.043Z,16.76
2023-05-19T20:29:14.648Z,16.81
2023-05-19T20:32:17.075Z,16.77
2023-05-19T20:35:19.406Z,16.68
2023-05-19T20:38:21.745Z,16.75
2023-05-19T20:41:24.119Z,16.76
2023-05-19T20:44:27.842Z,16.74
2023-05-19T20:47:30.719Z,16.73
2023-05-19T20:50:34.402Z,16.73
2023-05-19T20:53:38.065Z,16.73
2023-05-19T20:56:40.448Z,16.67
2023-05-19T20:59:42.751Z,16.64
2023-05-19T21:02:45.150Z,16.52
2023-05-19T21:05:47.522Z,16.49
2023-05-19T21:08:50.332Z,16.43
2023-05-19T21:11:55.749Z,16.29
2023-05-19T21:14:58.082Z,16.13
2023-05-19T21:18:00.487Z,15.94
2023-05-19T21:21:04.152Z,15.80
2023-05-19T21:24:06.617Z,15.70
2023-05-19T21:27:09.012Z,15.63
2023-05-19T21:30:12.319Z,15.65
2023-05-19T21:33:14.776Z,15.65
2023-05-19T21:36:17.254Z,15.55
2023-05-19T21:39:19.604Z,15.40
2023-05-19T21:42:21.911Z,15.29
2023-05-19T21:45:24.395Z,15.22
2023-05-19T21:48:26.754Z,15.10
2023-05-19T21:51:29.275Z,15.02
2023-05-19T21:54:31.659Z,14.95
2023-05-19T21:57:35.453Z,15.01
2023-05-19T22:00:38.346Z,15.01
2023-05-19T22:03:40.836Z,14.88
2023-05-19T22:06:43.332Z,15.00
2023-05-19T22:09:48.185Z,14.89
2023-05-19T22:12:51.185Z,14.92
2023-05-19T22:15:53.651Z,14.91
2023-05-19T22:18:56.123Z,14.91
2023-05-19T22:22:09.690Z,14.94
2023-05-19T22:25:16.107Z,14.94
2023-05-19T22:28:18.454Z,15.01
2023-05-19T22:31:21.669Z,14.90
2023-05-19T22:34:24.436Z,14.99
2023-05-19T22:37:28.999Z,14.98
2023-05-19T22:40:32.658Z,15.03
2023-05-19T22:43:35.220Z,15.07
2023-05-19T22:46:37.760Z,15.13
2023-05-19T22:49:42.887Z,14.99
2023-05-19T22:52:45.254Z,15.09
2023-05-19T22:55:47.718Z,15.07
2023-05-19T22:58:50.120Z,15.09
2023-05-19T23:01:52.485Z,15.14
2023-05-19T23:04:54.844Z,15.09
2023-05-19T23:07:57.179Z,14.98
2023-05-19T23:11:01.022Z,14.85
2023-05-19T23:14:03.364Z,14.73
2023-05-19T23:17:05.882Z,14.62
2023-05-19T23:20:08.600Z,14.58
2023-05-19T23:23:10.989Z,14.55
2023-05-19T23:26:16.085Z,14.45
2023-05-19T23:29:18.524Z,14.47
2023-05-19T23:32:20.912Z,14.42
2023-05-19T23:35:23.206Z,14.34
2023-05-19T23:38:27.095Z,14.18
2023-05-19T23:41:29.605Z,14.15
2023-05-19T23:44:31.926Z,14.14
2023-05-19T23:47:34.340Z,14.06
2023-05-19T23:50:36.737Z,14.11
2023-05-19T23:53:39.181Z,14.08
2023-05-19T23:56:42.546Z,13.96
2023-05-19T23:59:44.970Z,14.09
